sensor_id;sensor_type;location;lat;lon;timestamp;P1;durP1;ratioP1;P2;durP2;ratioP2
57441;SDS011;43284;47.042;15.498;2023-06-04T00:01:11;9.38;;;4.90;;
57441;SDS011;43284;47.042;15.498;2023-06-04T00:03:37;10.23;;;4.60;;
57441;SDS011;43284;47.042;15.498;2023-06-04T00:06:02;9.63;;;5.10;;
57441;SDS011;43284;47.042;15.498;2023-06-04T00:08:28;10.75;;;5.20;;
57441;SDS011;43284;47.042;15.498;2023-06-04T00:10:54;11.25;;;5.72;;
57441;SDS011;43284;47.042;15.498;2023-06-04T00:13:19;10.20;;;5.65;;
57441;SDS011;43284;47.042;15.498;2023-06-04T00:15:45;8.10;;;5.88;;
57441;SDS011;43284;47.042;15.498;2023-06-04T00:18:10;10.52;;;5.18;;
57441;SDS011;43284;47.042;15.498;2023-06-04T00:20:38;10.25;;;4.80;;
57441;SDS011;43284;47.042;15.498;2023-06-04T00:23:04;12.93;;;5.72;;
57441;SDS011;43284;47.042;15.498;2023-06-04T00:25:31;8.50;;;4.90;;
57441;SDS011;43284;47.042;15.498;2023-06-04T00:27:56;7.60;;;5.00;;
57441;SDS011;43284;47.042;15.498;2023-06-04T00:30:22;9.00;;;5.32;;
57441;SDS011;43284;47.042;15.498;2023-06-04T00:32:47;13.38;;;5.63;;
57441;SDS011;43284;47.042;15.498;2023-06-04T00:35:13;13.50;;;6.75;;
57441;SDS011;43284;47.042;15.498;2023-06-04T00:37:38;9.93;;;5.35;;
57441;SDS011;43284;47.042;15.498;2023-06-04T00:40:04;10.45;;;4.93;;
57441;SDS011;43284;47.042;15.498;2023-06-04T00:42:31;11.13;;;5.60;;
57441;SDS011;43284;47.042;15.498;2023-06-04T00:44:57;9.30;;;4.80;;
57441;SDS011;43284;47.042;15.498;2023-06-04T00:47:23;11.50;;;5.25;;
57441;SDS011;43284;47.042;15.498;2023-06-04T00:49:49;10.18;;;5.47;;
57441;SDS011;43284;47.042;15.498;2023-06-04T00:52:15;15.32;;;5.30;;
57441;SDS011;43284;47.042;15.498;2023-06-04T00:54:41;9.73;;;5.43;;
57441;SDS011;43284;47.042;15.498;2023-06-04T00:57:07;11.07;;;5.00;;
57441;SDS011;43284;47.042;15.498;2023-06-04T00:59:36;13.00;;;5.20;;
57441;SDS011;43284;47.042;15.498;2023-06-04T01:07:24;14.30;;;6.10;;
57441;SDS011;43284;47.042;15.498;2023-06-04T01:09:52;11.18;;;5.53;;
57441;SDS011;43284;47.042;15.498;2023-06-04T01:12:18;9.80;;;6.03;;
57441;SDS011;43284;47.042;15.498;2023-06-04T01:14:43;9.88;;;6.03;;
57441;SDS011;43284;47.042;15.498;2023-06-04T01:22:33;10.77;;;5.75;;
57441;SDS011;43284;47.042;15.498;2023-06-04T01:27:57;8.45;;;5.18;;
57441;SDS011;43284;47.042;15.498;2023-06-04T01:30:25;9.43;;;5.40;;
57441;SDS011;43284;47.042;15.498;2023-06-04T01:32:56;11.13;;;5.65;;
57441;SDS011;43284;47.042;15.498;2023-06-04T01:35:22;11.82;;;5.75;;
57441;SDS011;43284;47.042;15.498;2023-06-04T01:37:48;15.50;;;5.60;;
57441;SDS011;43284;47.042;15.498;2023-06-04T01:40:15;7.95;;;5.45;;
57441;SDS011;43284;47.042;15.498;2023-06-04T01:42:41;11.13;;;5.85;;
57441;SDS011;43284;47.042;15.498;2023-06-04T01:45:07;7.93;;;5.10;;
57441;SDS011;43284;47.042;15.498;2023-06-04T01:47:34;12.25;;;5.85;;
57441;SDS011;43284;47.042;15.498;2023-06-04T01:50:00;9.10;;;5.30;;
57441;SDS011;43284;47.042;15.498;2023-06-04T01:52:26;9.18;;;5.20;;
57441;SDS011;43284;47.042;15.498;2023-06-04T01:54:52;7.75;;;5.00;;
57441;SDS011;43284;47.042;15.498;2023-06-04T01:57:18;9.52;;;4.70;;
57441;SDS011;43284;47.042;15.498;2023-06-04T01:59:45;10.32;;;5.40;;
57441;SDS011;43284;47.042;15.498;2023-06-04T02:02:11;9.52;;;5.60;;
57441;SDS011;43284;47.042;15.498;2023-06-04T02:04:38;9.40;;;5.05;;
57441;SDS011;43284;47.042;15.498;2023-06-04T02:07:06;12.60;;;5.50;;
57441;SDS011;43284;47.042;15.498;2023-06-04T02:09:35;11.50;;;5.88;;
57441;SDS011;43284;47.042;15.498;2023-06-04T02:12:01;9.10;;;5.30;;
57441;SDS011;43284;47.042;15.498;2023-06-04T02:14:27;10.73;;;5.15;;
57441;SDS011;43284;47.042;15.498;2023-06-04T02:16:52;13.80;;;6.25;;
57441;SDS011;43284;47.042;15.498;2023-06-04T02:19:25;9.90;;;6.07;;
57441;SDS011;43284;47.042;15.498;2023-06-04T02:21:55;11.55;;;5.50;;
57441;SDS011;43284;47.042;15.498;2023-06-04T02:24:21;10.55;;;5.90;;
57441;SDS011;43284;47.042;15.498;2023-06-04T02:26:47;9.93;;;6.07;;
57441;SDS011;43284;47.042;15.498;2023-06-04T02:29:13;9.70;;;5.90;;
57441;SDS011;43284;47.042;15.498;2023-06-04T02:31:38;11.95;;;6.10;;
57441;SDS011;43284;47.042;15.498;2023-06-04T02:34:04;10.38;;;5.65;;
57441;SDS011;43284;47.042;15.498;2023-06-04T02:36:29;16.10;;;5.78;;
57441;SDS011;43284;47.042;15.498;2023-06-04T02:38:55;8.55;;;5.10;;
57441;SDS011;43284;47.042;15.498;2023-06-04T02:41:21;10.95;;;6.20;;
57441;SDS011;43284;47.042;15.498;2023-06-04T02:43:47;14.57;;;6.68;;
57441;SDS011;43284;47.042;15.498;2023-06-04T02:46:13;14.20;;;6.30;;
57441;SDS011;43284;47.042;15.498;2023-06-04T02:48:38;10.95;;;5.50;;
57441;SDS011;43284;47.042;15.498;2023-06-04T02:51:04;9.40;;;6.00;;
57441;SDS011;43284;47.042;15.498;2023-06-04T02:53:30;11.88;;;5.53;;
57441;SDS011;43284;47.042;15.498;2023-06-04T02:55:55;10.18;;;6.07;;
57441;SDS011;43284;47.042;15.498;2023-06-04T02:58:21;7.75;;;4.90;;
57441;SDS011;43284;47.042;15.498;2023-06-04T03:00:51;11.13;;;5.50;;
57441;SDS011;43284;47.042;15.498;2023-06-04T03:03:17;9.35;;;6.40;;
57441;SDS011;43284;47.042;15.498;2023-06-04T03:05:43;9.10;;;5.70;;
57441;SDS011;43284;47.042;15.498;2023-06-04T03:08:08;9.60;;;4.78;;
57441;SDS011;43284;47.042;15.498;2023-06-04T03:10:34;11.80;;;5.68;;
57441;SDS011;43284;47.042;15.498;2023-06-04T03:12:59;8.35;;;5.15;;
57441;SDS011;43284;47.042;15.498;2023-06-04T03:15:25;11.23;;;5.35;;
57441;SDS011;43284;47.042;15.498;2023-06-04T03:17:51;12.13;;;5.68;;
57441;SDS011;43284;47.042;15.498;2023-06-04T03:20:16;9.63;;;5.75;;
57441;SDS011;43284;47.042;15.498;2023-06-04T03:22:42;11.90;;;5.97;;
57441;SDS011;43284;47.042;15.498;2023-06-04T03:25:08;11.73;;;5.88;;
57441;SDS011;43284;47.042;15.498;2023-06-04T03:27:34;12.45;;;5.80;;
57441;SDS011;43284;47.042;15.498;2023-06-04T03:30:00;8.85;;;5.43;;
57441;SDS011;43284;47.042;15.498;2023-06-04T03:32:26;11.88;;;5.50;;
57441;SDS011;43284;47.042;15.498;2023-06-04T03:34:52;11.20;;;5.85;;
57441;SDS011;43284;47.042;15.498;2023-06-04T03:37:17;8.85;;;5.40;;
57441;SDS011;43284;47.042;15.498;2023-06-04T03:39:43;12.60;;;6.20;;
57441;SDS011;43284;47.042;15.498;2023-06-04T03:42:08;9.80;;;5.90;;
57441;SDS011;43284;47.042;15.498;2023-06-04T03:44:34;10.50;;;5.60;;
57441;SDS011;43284;47.042;15.498;2023-06-04T03:46:59;12.05;;;6.28;;
57441;SDS011;43284;47.042;15.498;2023-06-04T03:49:25;9.63;;;5.60;;
57441;SDS011;43284;47.042;15.498;2023-06-04T03:51:51;12.32;;;6.35;;
57441;SDS011;43284;47.042;15.498;2023-06-04T03:54:16;10.43;;;6.25;;
57441;SDS011;43284;47.042;15.498;2023-06-04T03:56:45;10.77;;;5.95;;
57441;SDS011;43284;47.042;15.498;2023-06-04T03:59:11;10.43;;;6.53;;
57441;SDS011;43284;47.042;15.498;2023-06-04T04:01:37;10.23;;;6.03;;
57441;SDS011;43284;47.042;15.498;2023-06-04T04:04:04;10.55;;;6.25;;
57441;SDS011;43284;47.042;15.498;2023-06-04T04:06:30;10.70;;;6.13;;
57441;SDS011;43284;47.042;15.498;2023-06-04T04:08:56;11.75;;;5.88;;
57441;SDS011;43284;47.042;15.498;2023-06-04T04:11:23;9.75;;;5.75;;
57441;SDS011;43284;47.042;15.498;2023-06-04T04:13:49;8.15;;;5.10;;
57441;SDS011;43284;47.042;15.498;2023-06-04T04:16:14;8.25;;;5.53;;
57441;SDS011;43284;47.042;15.498;2023-06-04T04:18:41;14.15;;;5.70;;
57441;SDS011;43284;47.042;15.498;2023-06-04T04:21:10;16.85;;;5.95;;
57441;SDS011;43284;47.042;15.498;2023-06-04T04:23:37;9.77;;;5.32;;
57441;SDS011;43284;47.042;15.498;2023-06-04T04:26:07;9.90;;;5.38;;
57441;SDS011;43284;47.042;15.498;2023-06-04T04:28:33;13.40;;;5.78;;
57441;SDS011;43284;47.042;15.498;2023-06-04T04:30:59;10.13;;;5.65;;
57441;SDS011;43284;47.042;15.498;2023-06-04T04:33:27;9.02;;;5.53;;
57441;SDS011;43284;47.042;15.498;2023-06-04T04:35:58;9.43;;;5.85;;
57441;SDS011;43284;47.042;15.498;2023-06-04T04:38:26;11.80;;;5.82;;
57441;SDS011;43284;47.042;15.498;2023-06-04T04:40:53;11.55;;;5.43;;
57441;SDS011;43284;47.042;15.498;2023-06-04T04:43:30;11.10;;;5.70;;
57441;SDS011;43284;47.042;15.498;2023-06-04T04:45:56;9.40;;;5.57;;
57441;SDS011;43284;47.042;15.498;2023-06-04T04:48:22;10.00;;;5.97;;
57441;SDS011;43284;47.042;15.498;2023-06-04T04:54:10;13.93;;;6.90;;
57441;SDS011;43284;47.042;15.498;2023-06-04T04:56:35;10.65;;;5.78;;
57441;SDS011;43284;47.042;15.498;2023-06-04T04:59:01;11.70;;;6.45;;
57441;SDS011;43284;47.042;15.498;2023-06-04T05:01:27;16.08;;;7.25;;
57441;SDS011;43284;47.042;15.498;2023-06-04T05:03:52;12.63;;;5.95;;
57441;SDS011;43284;47.042;15.498;2023-06-04T05:06:18;14.85;;;6.32;;
57441;SDS011;43284;47.042;15.498;2023-06-04T05:08:43;10.32;;;6.15;;
57441;SDS011;43284;47.042;15.498;2023-06-04T05:11:09;12.77;;;6.75;;
57441;SDS011;43284;47.042;15.498;2023-06-04T05:13:34;8.65;;;6.25;;
57441;SDS011;43284;47.042;15.498;2023-06-04T05:16:01;13.40;;;6.72;;
57441;SDS011;43284;47.042;15.498;2023-06-04T05:18:31;13.48;;;6.68;;
57441;SDS011;43284;47.042;15.498;2023-06-04T05:20:59;12.18;;;6.90;;
57441;SDS011;43284;47.042;15.498;2023-06-04T05:23:27;10.48;;;5.93;;
57441;SDS011;43284;47.042;15.498;2023-06-04T05:25:55;12.32;;;6.50;;
57441;SDS011;43284;47.042;15.498;2023-06-04T05:28:21;14.18;;;6.30;;
57441;SDS011;43284;47.042;15.498;2023-06-04T05:30:50;13.93;;;6.32;;
57441;SDS011;43284;47.042;15.498;2023-06-04T05:33:17;10.43;;;6.80;;
57441;SDS011;43284;47.042;15.498;2023-06-04T05:35:46;9.65;;;6.38;;
57441;SDS011;43284;47.042;15.498;2023-06-04T05:38:13;13.77;;;6.63;;
57441;SDS011;43284;47.042;15.498;2023-06-04T05:40:44;11.68;;;5.90;;
57441;SDS011;43284;47.042;15.498;2023-06-04T05:43:10;14.15;;;6.45;;
57441;SDS011;43284;47.042;15.498;2023-06-04T05:45:36;12.52;;;6.20;;
57441;SDS011;43284;47.042;15.498;2023-06-04T05:48:02;14.68;;;6.55;;
57441;SDS011;43284;47.042;15.498;2023-06-04T05:50:28;13.57;;;6.10;;
57441;SDS011;43284;47.042;15.498;2023-06-04T05:52:53;11.60;;;5.95;;
57441;SDS011;43284;47.042;15.498;2023-06-04T05:55:19;10.25;;;5.38;;
57441;SDS011;43284;47.042;15.498;2023-06-04T05:57:44;8.52;;;5.50;;
57441;SDS011;43284;47.042;15.498;2023-06-04T06:00:10;12.80;;;5.88;;
57441;SDS011;43284;47.042;15.498;2023-06-04T06:02:36;12.82;;;5.93;;
57441;SDS011;43284;47.042;15.498;2023-06-04T06:05:05;9.50;;;5.57;;
57441;SDS011;43284;47.042;15.498;2023-06-04T06:07:33;9.70;;;5.43;;
57441;SDS011;43284;47.042;15.498;2023-06-04T06:09:59;9.07;;;5.10;;
57441;SDS011;43284;47.042;15.498;2023-06-04T06:12:25;9.48;;;5.63;;
57441;SDS011;43284;47.042;15.498;2023-06-04T06:14:50;10.85;;;5.57;;
57441;SDS011;43284;47.042;15.498;2023-06-04T06:17:16;13.82;;;6.20;;
57441;SDS011;43284;47.042;15.498;2023-06-04T06:19:41;11.15;;;6.35;;
57441;SDS011;43284;47.042;15.498;2023-06-04T06:22:07;11.52;;;5.40;;
57441;SDS011;43284;47.042;15.498;2023-06-04T06:24:33;8.57;;;5.30;;
57441;SDS011;43284;47.042;15.498;2023-06-04T06:26:59;12.65;;;5.30;;
57441;SDS011;43284;47.042;15.498;2023-06-04T06:29:24;13.60;;;5.72;;
57441;SDS011;43284;47.042;15.498;2023-06-04T06:31:50;12.30;;;5.72;;
57441;SDS011;43284;47.042;15.498;2023-06-04T06:34:15;11.57;;;5.72;;
57441;SDS011;43284;47.042;15.498;2023-06-04T06:36:41;8.88;;;5.63;;
57441;SDS011;43284;47.042;15.498;2023-06-04T06:39:07;11.32;;;5.82;;
57441;SDS011;43284;47.042;15.498;2023-06-04T06:41:32;13.02;;;6.10;;
57441;SDS011;43284;47.042;15.498;2023-06-04T06:43:58;11.40;;;6.45;;
57441;SDS011;43284;47.042;15.498;2023-06-04T06:46:23;9.43;;;5.32;;
57441;SDS011;43284;47.042;15.498;2023-06-04T06:48:49;12.40;;;6.15;;
57441;SDS011;43284;47.042;15.498;2023-06-04T06:51:14;11.60;;;5.55;;
57441;SDS011;43284;47.042;15.498;2023-06-04T06:53:40;12.13;;;5.60;;
57441;SDS011;43284;47.042;15.498;2023-06-04T06:56:06;15.38;;;5.82;;
57441;SDS011;43284;47.042;15.498;2023-06-04T06:58:32;11.85;;;5.05;;
57441;SDS011;43284;47.042;15.498;2023-06-04T07:00:57;9.52;;;5.50;;
57441;SDS011;43284;47.042;15.498;2023-06-04T07:03:23;12.77;;;6.05;;
57441;SDS011;43284;47.042;15.498;2023-06-04T07:05:48;11.32;;;5.68;;
57441;SDS011;43284;47.042;15.498;2023-06-04T07:08:14;22.92;;;6.72;;
57441;SDS011;43284;47.042;15.498;2023-06-04T07:10:39;10.25;;;5.75;;
57441;SDS011;43284;47.042;15.498;2023-06-04T07:13:05;13.20;;;5.22;;
57441;SDS011;43284;47.042;15.498;2023-06-04T07:15:31;11.32;;;5.50;;
57441;SDS011;43284;47.042;15.498;2023-06-04T07:17:56;9.65;;;5.28;;
57441;SDS011;43284;47.042;15.498;2023-06-04T07:20:22;11.35;;;6.15;;
57441;SDS011;43284;47.042;15.498;2023-06-04T07:22:47;12.88;;;5.60;;
57441;SDS011;43284;47.042;15.498;2023-06-04T07:25:13;11.07;;;5.25;;
57441;SDS011;43284;47.042;15.498;2023-06-04T07:27:38;12.57;;;5.43;;
57441;SDS011;43284;47.042;15.498;2023-06-04T07:30:05;8.60;;;4.75;;
57441;SDS011;43284;47.042;15.498;2023-06-04T07:32:31;7.65;;;4.72;;
57441;SDS011;43284;47.042;15.498;2023-06-04T07:34:57;12.23;;;5.13;;
57441;SDS011;43284;47.042;15.498;2023-06-04T07:37:22;7.43;;;4.50;;
57441;SDS011;43284;47.042;15.498;2023-06-04T07:39:48;8.05;;;4.60;;
57441;SDS011;43284;47.042;15.498;2023-06-04T07:42:14;11.25;;;4.93;;
57441;SDS011;43284;47.042;15.498;2023-06-04T07:44:39;8.63;;;4.22;;
57441;SDS011;43284;47.042;15.498;2023-06-04T07:47:05;8.70;;;5.10;;
57441;SDS011;43284;47.042;15.498;2023-06-04T07:49:30;10.10;;;4.88;;
57441;SDS011;43284;47.042;15.498;2023-06-04T07:51:56;11.43;;;4.40;;
57441;SDS011;43284;47.042;15.498;2023-06-04T07:54:21;6.05;;;4.45;;
57441;SDS011;43284;47.042;15.498;2023-06-04T07:56:47;11.23;;;4.63;;
57441;SDS011;43284;47.042;15.498;2023-06-04T07:59:12;11.90;;;5.10;;
57441;SDS011;43284;47.042;15.498;2023-06-04T08:01:38;8.98;;;4.75;;
57441;SDS011;43284;47.042;15.498;2023-06-04T08:04:04;13.23;;;4.97;;
57441;SDS011;43284;47.042;15.498;2023-06-04T08:06:29;9.15;;;4.82;;
57441;SDS011;43284;47.042;15.498;2023-06-04T08:08:55;11.60;;;4.55;;
57441;SDS011;43284;47.042;15.498;2023-06-04T08:11:20;7.65;;;3.97;;
57441;SDS011;43284;47.042;15.498;2023-06-04T08:13:49;8.10;;;3.95;;
57441;SDS011;43284;47.042;15.498;2023-06-04T08:16:15;7.63;;;4.10;;
57441;SDS011;43284;47.042;15.498;2023-06-04T08:18:40;9.65;;;4.00;;
57441;SDS011;43284;47.042;15.498;2023-06-04T08:21:09;10.60;;;4.03;;
57441;SDS011;43284;47.042;15.498;2023-06-04T08:23:42;11.30;;;4.25;;
57441;SDS011;43284;47.042;15.498;2023-06-04T08:26:07;9.57;;;4.32;;
57441;SDS011;43284;47.042;15.498;2023-06-04T08:28:33;6.03;;;4.00;;
57441;SDS011;43284;47.042;15.498;2023-06-04T08:30:58;8.32;;;4.00;;
57441;SDS011;43284;47.042;15.498;2023-06-04T08:33:23;9.30;;;4.15;;
57441;SDS011;43284;47.042;15.498;2023-06-04T08:35:49;9.35;;;4.20;;
57441;SDS011;43284;47.042;15.498;2023-06-04T08:38:14;10.95;;;5.13;;
57441;SDS011;43284;47.042;15.498;2023-06-04T08:40:40;9.50;;;3.72;;
57441;SDS011;43284;47.042;15.498;2023-06-04T08:43:06;6.78;;;4.28;;
57441;SDS011;43284;47.042;15.498;2023-06-04T08:45:32;5.90;;;3.67;;
57441;SDS011;43284;47.042;15.498;2023-06-04T08:48:03;10.40;;;4.07;;
57441;SDS011;43284;47.042;15.498;2023-06-04T08:50:30;8.20;;;4.10;;
57441;SDS011;43284;47.042;15.498;2023-06-04T08:52:57;5.65;;;3.45;;
57441;SDS011;43284;47.042;15.498;2023-06-04T08:55:23;10.10;;;4.28;;
57441;SDS011;43284;47.042;15.498;2023-06-04T08:57:51;5.93;;;3.58;;
57441;SDS011;43284;47.042;15.498;2023-06-04T09:00:17;8.02;;;4.18;;
57441;SDS011;43284;47.042;15.498;2023-06-04T09:02:43;8.18;;;4.45;;
57441;SDS011;43284;47.042;15.498;2023-06-04T09:05:10;6.07;;;3.53;;
57441;SDS011;43284;47.042;15.498;2023-06-04T09:07:44;6.75;;;3.83;;
57441;SDS011;43284;47.042;15.498;2023-06-04T09:10:11;7.90;;;4.80;;
57441;SDS011;43284;47.042;15.498;2023-06-04T09:12:42;8.35;;;5.03;;
57441;SDS011;43284;47.042;15.498;2023-06-04T09:15:11;10.75;;;4.00;;
57441;SDS011;43284;47.042;15.498;2023-06-04T09:17:38;7.50;;;4.10;;
57441;SDS011;43284;47.042;15.498;2023-06-04T09:20:03;6.93;;;4.10;;
57441;SDS011;43284;47.042;15.498;2023-06-04T09:22:34;11.90;;;4.05;;
57441;SDS011;43284;47.042;15.498;2023-06-04T09:25:02;5.72;;;3.95;;
57441;SDS011;43284;47.042;15.498;2023-06-04T09:27:36;6.85;;;3.75;;
57441;SDS011;43284;47.042;15.498;2023-06-04T09:30:03;6.40;;;4.03;;
57441;SDS011;43284;47.042;15.498;2023-06-04T09:32:31;5.70;;;3.60;;
57441;SDS011;43284;47.042;15.498;2023-06-04T09:35:18;6.32;;;4.20;;
57441;SDS011;43284;47.042;15.498;2023-06-04T09:37:53;8.55;;;3.88;;
57441;SDS011;43284;47.042;15.498;2023-06-04T09:40:20;7.18;;;3.97;;
57441;SDS011;43284;47.042;15.498;2023-06-04T09:42:47;10.48;;;5.00;;
57441;SDS011;43284;47.042;15.498;2023-06-04T09:48:00;10.10;;;5.18;;
57441;SDS011;43284;47.042;15.498;2023-06-04T09:52:55;8.43;;;4.38;;
57441;SDS011;43284;47.042;15.498;2023-06-04T09:55:21;7.55;;;4.50;;
57441;SDS011;43284;47.042;15.498;2023-06-04T09:57:47;6.93;;;4.53;;
57441;SDS011;43284;47.042;15.498;2023-06-04T10:00:17;9.02;;;4.65;;
57441;SDS011;43284;47.042;15.498;2023-06-04T10:02:44;9.85;;;4.40;;
57441;SDS011;43284;47.042;15.498;2023-06-04T10:05:13;9.50;;;5.03;;
57441;SDS011;43284;47.042;15.498;2023-06-04T10:07:42;8.18;;;4.68;;
57441;SDS011;43284;47.042;15.498;2023-06-04T10:10:16;9.05;;;4.70;;
57441;SDS011;43284;47.042;15.498;2023-06-04T10:12:45;8.82;;;4.30;;
57441;SDS011;43284;47.042;15.498;2023-06-04T10:15:15;9.73;;;4.13;;
57441;SDS011;43284;47.042;15.498;2023-06-04T10:17:42;7.65;;;4.97;;
57441;SDS011;43284;47.042;15.498;2023-06-04T10:20:08;9.40;;;4.50;;
57441;SDS011;43284;47.042;15.498;2023-06-04T10:22:35;9.02;;;5.05;;
57441;SDS011;43284;47.042;15.498;2023-06-04T10:25:04;8.60;;;4.80;;
57441;SDS011;43284;47.042;15.498;2023-06-04T10:27:31;8.65;;;4.57;;
57441;SDS011;43284;47.042;15.498;2023-06-04T10:29:57;5.90;;;4.00;;
57441;SDS011;43284;47.042;15.498;2023-06-04T10:32:26;7.50;;;4.63;;
57441;SDS011;43284;47.042;15.498;2023-06-04T10:34:55;8.13;;;4.63;;
57441;SDS011;43284;47.042;15.498;2023-06-04T10:37:25;13.00;;;5.75;;
57441;SDS011;43284;47.042;15.498;2023-06-04T10:39:55;9.45;;;4.72;;
57441;SDS011;43284;47.042;15.498;2023-06-04T10:42:22;8.85;;;4.63;;
57441;SDS011;43284;47.042;15.498;2023-06-04T10:44:49;7.18;;;4.60;;
57441;SDS011;43284;47.042;15.498;2023-06-04T10:47:22;6.97;;;4.40;;
57441;SDS011;43284;47.042;15.498;2023-06-04T10:49:49;11.95;;;5.43;;
57441;SDS011;43284;47.042;15.498;2023-06-04T10:52:20;8.95;;;4.65;;
57441;SDS011;43284;47.042;15.498;2023-06-04T10:54:46;9.07;;;4.63;;
57441;SDS011;43284;47.042;15.498;2023-06-04T10:57:18;7.35;;;4.78;;
57441;SDS011;43284;47.042;15.498;2023-06-04T10:59:56;8.35;;;4.93;;
57441;SDS011;43284;47.042;15.498;2023-06-04T11:02:24;11.80;;;4.90;;
57441;SDS011;43284;47.042;15.498;2023-06-04T11:05:03;9.40;;;4.80;;
57441;SDS011;43284;47.042;15.498;2023-06-04T11:07:44;8.98;;;5.35;;
57441;SDS011;43284;47.042;15.498;2023-06-04T11:10:11;7.55;;;4.60;;
57441;SDS011;43284;47.042;15.498;2023-06-04T11:12:41;8.45;;;5.10;;
57441;SDS011;43284;47.042;15.498;2023-06-04T11:15:11;14.85;;;4.57;;
57441;SDS011;43284;47.042;15.498;2023-06-04T11:17:37;11.40;;;4.72;;
57441;SDS011;43284;47.042;15.498;2023-06-04T11:20:02;8.07;;;4.53;;
57441;SDS011;43284;47.042;15.498;2023-06-04T11:22:31;7.13;;;4.65;;
57441;SDS011;43284;47.042;15.498;2023-06-04T11:24:58;6.95;;;4.35;;
57441;SDS011;43284;47.042;15.498;2023-06-04T11:27:24;12.15;;;6.18;;
57441;SDS011;43284;47.042;15.498;2023-06-04T11:29:50;12.68;;;5.30;;
57441;SDS011;43284;47.042;15.498;2023-06-04T11:32:23;10.23;;;4.60;;
57441;SDS011;43284;47.042;15.498;2023-06-04T11:34:49;8.68;;;4.93;;
57441;SDS011;43284;47.042;15.498;2023-06-04T11:37:15;11.23;;;5.20;;
57441;SDS011;43284;47.042;15.498;2023-06-04T11:39:40;8.60;;;5.40;;
57441;SDS011;43284;47.042;15.498;2023-06-04T11:42:09;8.98;;;5.47;;
57441;SDS011;43284;47.042;15.498;2023-06-04T11:44:35;8.25;;;4.95;;
57441;SDS011;43284;47.042;15.498;2023-06-04T11:47:04;9.82;;;5.75;;
57441;SDS011;43284;47.042;15.498;2023-06-04T11:49:31;11.40;;;4.97;;
57441;SDS011;43284;47.042;15.498;2023-06-04T11:51:59;13.82;;;5.88;;
57441;SDS011;43284;47.042;15.498;2023-06-04T11:54:25;8.65;;;5.30;;
57441;SDS011;43284;47.042;15.498;2023-06-04T11:56:51;12.10;;;6.95;;
57441;SDS011;43284;47.042;15.498;2023-06-04T11:59:17;9.02;;;6.15;;
57441;SDS011;43284;47.042;15.498;2023-06-04T12:01:44;10.85;;;6.05;;
57441;SDS011;43284;47.042;15.498;2023-06-04T12:04:17;10.52;;;5.35;;
57441;SDS011;43284;47.042;15.498;2023-06-04T12:06:53;7.57;;;4.70;;
57441;SDS011;43284;47.042;15.498;2023-06-04T12:09:25;12.38;;;6.15;;
57441;SDS011;43284;47.042;15.498;2023-06-04T12:12:00;12.10;;;5.88;;
57441;SDS011;43284;47.042;15.498;2023-06-04T12:14:26;10.93;;;5.20;;
57441;SDS011;43284;47.042;15.498;2023-06-04T12:16:58;9.32;;;5.10;;
57441;SDS011;43284;47.042;15.498;2023-06-04T12:19:31;6.13;;;4.75;;
57441;SDS011;43284;47.042;15.498;2023-06-04T12:22:00;11.75;;;5.88;;
57441;SDS011;43284;47.042;15.498;2023-06-04T12:24:30;9.75;;;4.88;;
57441;SDS011;43284;47.042;15.498;2023-06-04T12:27:01;8.52;;;5.07;;
57441;SDS011;43284;47.042;15.498;2023-06-04T12:29:27;11.32;;;5.88;;
57441;SDS011;43284;47.042;15.498;2023-06-04T12:32:00;12.88;;;6.13;;
57441;SDS011;43284;47.042;15.498;2023-06-04T12:34:29;8.05;;;5.55;;
57441;SDS011;43284;47.042;15.498;2023-06-04T12:36:54;10.77;;;5.18;;
57441;SDS011;43284;47.042;15.498;2023-06-04T12:39:20;8.80;;;5.13;;
57441;SDS011;43284;47.042;15.498;2023-06-04T12:41:45;8.52;;;5.18;;
57441;SDS011;43284;47.042;15.498;2023-06-04T12:44:11;12.80;;;5.78;;
57441;SDS011;43284;47.042;15.498;2023-06-04T12:46:36;9.30;;;5.22;;
57441;SDS011;43284;47.042;15.498;2023-06-04T12:49:02;11.52;;;5.15;;
57441;SDS011;43284;47.042;15.498;2023-06-04T12:51:28;8.10;;;5.28;;
57441;SDS011;43284;47.042;15.498;2023-06-04T12:53:53;7.97;;;5.30;;
57441;SDS011;43284;47.042;15.498;2023-06-04T12:56:19;9.95;;;5.60;;
57441;SDS011;43284;47.042;15.498;2023-06-04T12:58:44;9.50;;;5.43;;
57441;SDS011;43284;47.042;15.498;2023-06-04T13:01:10;12.10;;;5.68;;
57441;SDS011;43284;47.042;15.498;2023-06-04T13:03:36;8.02;;;5.28;;
57441;SDS011;43284;47.042;15.498;2023-06-04T13:06:03;13.05;;;5.70;;
57441;SDS011;43284;47.042;15.498;2023-06-04T13:08:30;11.55;;;5.63;;
57441;SDS011;43284;47.042;15.498;2023-06-04T13:10:56;8.27;;;4.93;;
57441;SDS011;43284;47.042;15.498;2023-06-04T13:13:22;10.70;;;5.57;;
57441;SDS011;43284;47.042;15.498;2023-06-04T13:15:47;8.75;;;5.32;;
57441;SDS011;43284;47.042;15.498;2023-06-04T13:18:13;11.27;;;5.97;;
57441;SDS011;43284;47.042;15.498;2023-06-04T13:20:42;9.93;;;5.90;;
57441;SDS011;43284;47.042;15.498;2023-06-04T13:23:07;9.48;;;5.25;;
57441;SDS011;43284;47.042;15.498;2023-06-04T13:25:33;13.52;;;7.20;;
57441;SDS011;43284;47.042;15.498;2023-06-04T13:28:02;11.57;;;5.82;;
57441;SDS011;43284;47.042;15.498;2023-06-04T13:30:28;8.93;;;6.20;;
57441;SDS011;43284;47.042;15.498;2023-06-04T13:32:54;9.90;;;6.18;;
57441;SDS011;43284;47.042;15.498;2023-06-04T13:35:20;10.32;;;6.35;;
57441;SDS011;43284;47.042;15.498;2023-06-04T13:37:45;8.88;;;5.93;;
57441;SDS011;43284;47.042;15.498;2023-06-04T13:40:13;9.00;;;6.35;;
57441;SDS011;43284;47.042;15.498;2023-06-04T13:42:38;11.00;;;6.22;;
57441;SDS011;43284;47.042;15.498;2023-06-04T13:45:04;11.23;;;6.75;;
57441;SDS011;43284;47.042;15.498;2023-06-04T13:47:30;14.10;;;7.38;;
57441;SDS011;43284;47.042;15.498;2023-06-04T13:49:57;10.40;;;7.38;;
57441;SDS011;43284;47.042;15.498;2023-06-04T13:52:22;14.32;;;7.95;;
57441;SDS011;43284;47.042;15.498;2023-06-04T13:54:48;16.50;;;8.70;;
57441;SDS011;43284;47.042;15.498;2023-06-04T13:57:13;11.93;;;7.95;;
57441;SDS011;43284;47.042;15.498;2023-06-04T13:59:39;16.00;;;8.60;;
57441;SDS011;43284;47.042;15.498;2023-06-04T14:02:06;16.17;;;8.68;;
57441;SDS011;43284;47.042;15.498;2023-06-04T14:04:32;13.68;;;8.30;;
57441;SDS011;43284;47.042;15.498;2023-06-04T14:06:58;21.08;;;10.52;;
57441;SDS011;43284;47.042;15.498;2023-06-04T14:09:24;21.17;;;10.98;;
57441;SDS011;43284;47.042;15.498;2023-06-04T14:11:49;22.70;;;11.35;;
57441;SDS011;43284;47.042;15.498;2023-06-04T14:14:16;23.52;;;12.35;;
57441;SDS011;43284;47.042;15.498;2023-06-04T14:16:45;26.38;;;11.00;;
57441;SDS011;43284;47.042;15.498;2023-06-04T14:19:11;23.90;;;11.68;;
57441;SDS011;43284;47.042;15.498;2023-06-04T14:21:38;19.75;;;10.35;;
57441;SDS011;43284;47.042;15.498;2023-06-04T14:24:03;15.70;;;8.82;;
57441;SDS011;43284;47.042;15.498;2023-06-04T14:26:29;18.25;;;8.20;;
57441;SDS011;43284;47.042;15.498;2023-06-04T14:28:55;15.63;;;7.07;;
57441;SDS011;43284;47.042;15.498;2023-06-04T14:31:21;12.30;;;6.15;;
57441;SDS011;43284;47.042;15.498;2023-06-04T14:33:47;17.33;;;6.57;;
57441;SDS011;43284;47.042;15.498;2023-06-04T14:36:12;11.57;;;5.80;;
57441;SDS011;43284;47.042;15.498;2023-06-04T14:38:38;10.02;;;5.55;;
57441;SDS011;43284;47.042;15.498;2023-06-04T14:41:04;9.95;;;5.50;;
57441;SDS011;43284;47.042;15.498;2023-06-04T14:43:29;9.48;;;5.20;;
57441;SDS011;43284;47.042;15.498;2023-06-04T14:45:55;8.57;;;5.07;;